Portada
METAR-TAF:

METAR-TAF

Aeroports :

Mysore, Índia

latitud: 12-13-48N, longitud: 76-39-21E, altitud: 715 m

Observació

L'informe es va fer fa 2 hores i 36 minuts, a les 14:30 UTC
Vent 6 kt del Oest/Sud-Oest
Temperatura 22°C
Humitat 88%
Pressió 1010 hPa
Visibilitat: 6000 m
Escasses núvols a una alçada de 1000 ft
Núvols disperses a una alçada de 1200 ft
Cel ennuvolat a una alçada de 8000 ft

METAR: VOMY 251430Z 25006KT 6000 FEW010 SCT012 BKN080 22/20 Q1010

Hora: 22:36 (17:06 UTC)

Pronòstic

L'informe es va fer fa 9 hores i 6 minuts, a les 08:00 UTC
Pronòstic vàlid del 25 a les 09 UTC al 25 a les 18 UTC
Vent 10 kt del Oest amb ràfegues de 20 kt
Visibilitat: 6000 m
Núvols disperses a una alçada de 800 ft
Núvols disperses a una alçada de 1200 ft
Cel ennuvolat a una alçada de 8000 ft
Temporalment
l' 25 a les 09 UTC al 25 a les 15 UTC
Visibilitat: 3000 m
pluja, plugim,

TAF: VOMY 250800Z 2509/2518 27010G20KT 6000 SCT008 SCT012 BKN080 TEMPO 2509/2515 3000 RA DZ

Observacions i pronòstics meteorològics de més de 4000 aeroports (METAR i TAF).

Les estacions disponibles són els punts grocs i vermells al mapa.

Posi el ratolí al punt desitjat per veure el nom de l'estació.

Feu clic per veure les observacions i els pronòstics meteorològics.

Per canviar el mapa: feu clic els botons verds amb una creu de color negre per apropar; al botó verd amb un guió per allunyar la imatge; o en les fletxes verdes per a mapes adjacents.


METAR-TAF: